Time;durP1;ratioP1;P1;durP2;ratioP2;P2;SDS_P1;SDS_P2;PMS_P1;PMS_P2;Temp;Humidity;BMP_temperature;BMP_pressure;BME280_temperature;BME280_humidity;BME280_pressure;Samples;Min_cycle;Max_cycle;Signal;HPM_P1;HPM_P2
2023/12/15 00:00:53;;;;;;;26.23;13.67;;;1.70;99.90;;;;;;2602415;54;20037;31
2023/12/15 00:03:31;;;;;;;28.95;14.25;;;1.60;99.90;;;;;;2602847;54;20262;31
2023/12/15 00:06:05;;;;;;;29.88;13.55;;;1.70;99.90;;;;;;2602674;54;20057;31
2023/12/15 00:08:41;;;;;;;32.15;14.60;;;1.70;99.90;;;;;;2602803;54;20031;31
2023/12/15 00:11:15;;;;;;;29.67;14.00;;;1.70;99.90;;;;;;2602775;54;20030;31
2023/12/15 00:13:50;;;;;;;31.00;14.47;;;1.70;99.90;;;;;;2602500;54;20927;31
2023/12/15 00:16:25;;;;;;;30.20;13.70;;;1.70;99.90;;;;;;2602555;54;20323;31
2023/12/15 00:19:03;;;;;;;33.10;14.37;;;1.70;99.90;;;;;;2602611;54;20038;31
2023/12/15 00:21:39;;;;;;;29.67;14.95;;;1.70;99.90;;;;;;2602580;54;20241;31
2023/12/15 00:24:15;;;;;;;31.65;14.70;;;1.70;99.90;;;;;;2602392;54;20835;31
2023/12/15 00:26:54;;;;;;;32.60;14.13;;;1.70;99.90;;;;;;2602316;54;20076;31
2023/12/15 00:29:28;;;;;;;28.80;14.90;;;1.70;99.90;;;;;;2602603;54;20031;31
2023/12/15 00:32:06;;;;;;;30.23;13.27;;;1.70;99.90;;;;;;2602654;54;20860;31
2023/12/15 00:34:44;;;;;;;33.35;15.48;;;1.70;99.90;;;;;;2602401;54;21134;31
2023/12/15 00:37:20;;;;;;;30.77;14.32;;;1.70;99.90;;;;;;2620964;47;20565;31
2023/12/15 00:39:55;;;;;;;30.50;14.50;;;1.70;99.90;;;;;;2621226;47;20026;31
2023/12/15 00:42:29;;;;;;;31.40;15.10;;;1.70;99.90;;;;;;2602701;54;20894;31
2023/12/15 00:45:04;;;;;;;31.15;14.30;;;1.70;99.90;;;;;;2602689;54;20871;31
2023/12/15 00:47:39;;;;;;;27.20;13.90;;;1.70;99.90;;;;;;2602666;54;20736;31
2023/12/15 00:50:17;;;;;;;25.10;13.70;;;1.70;99.90;;;;;;2602386;54;20112;31
2023/12/15 00:52:51;;;;;;;28.23;14.03;;;1.70;99.90;;;;;;2602355;54;20290;31
2023/12/15 00:55:26;;;;;;;29.92;13.63;;;1.70;99.90;;;;;;2621155;47;20090;31
2023/12/15 00:58:00;;;;;;;27.37;13.47;;;1.60;99.90;;;;;;2602522;54;20920;31
2023/12/15 01:00:35;;;;;;;29.70;13.50;;;1.60;99.90;;;;;;2602499;54;21082;31
2023/12/15 01:03:10;;;;;;;26.23;13.03;;;1.60;99.90;;;;;;2602406;54;20832;31
2023/12/15 01:05:50;;;;;;;29.30;14.18;;;1.60;99.90;;;;;;2603356;54;21197;31
2023/12/15 01:08:24;;;;;;;28.70;14.20;;;1.60;99.90;;;;;;2603334;54;20767;31
2023/12/15 01:10:59;;;;;;;24.83;13.07;;;1.60;99.90;;;;;;2603125;54;20914;31
2023/12/15 01:13:33;;;;;;;27.42;14.43;;;1.60;99.90;;;;;;2603413;54;20981;31
2023/12/15 01:16:09;;;;;;;25.15;13.85;;;1.60;99.90;;;;;;2603166;54;20034;31
2023/12/15 01:18:44;;;;;;;25.00;13.07;;;1.60;99.90;;;;;;2603439;54;20104;31
2023/12/15 01:21:22;;;;;;;28.85;13.75;;;1.60;99.90;;;;;;2603177;54;20135;31
2023/12/15 01:23:54;;;;;;;28.65;13.70;;;1.70;99.90;;;;;;2621487;46;21123;31
2023/12/15 01:26:29;;;;;;;26.67;12.77;;;1.60;99.90;;;;;;2603251;54;20030;31
2023/12/15 01:29:04;;;;;;;28.00;14.10;;;1.60;99.90;;;;;;2603364;54;20031;31
2023/12/15 01:31:38;;;;;;;28.20;13.23;;;1.60;99.90;;;;;;2603312;54;20895;31
2023/12/15 01:34:13;;;;;;;22.35;11.20;;;1.60;99.90;;;;;;2621619;46;20234;31
2023/12/15 01:36:51;;;;;;;23.25;12.35;;;1.60;99.90;;;;;;2603040;54;20064;31
2023/12/15 01:39:25;;;;;;;27.00;13.15;;;1.60;99.90;;;;;;2603120;54;20030;31
2023/12/15 01:42:03;;;;;;;31.25;14.02;;;1.60;99.90;;;;;;2603200;54;20796;31
2023/12/15 01:44:37;;;;;;;25.40;13.10;;;1.50;99.90;;;;;;2603315;54;20757;31
2023/12/15 01:47:13;;;;;;;26.52;13.52;;;1.50;99.90;;;;;;2603172;54;20030;31
2023/12/15 01:49:47;;;;;;;;;;;1.50;99.90;;;;;;2603517;54;20033;31
2023/12/15 01:52:25;;;;;;;26.93;13.00;;;1.50;99.90;;;;;;2603030;54;20774;31
2023/12/15 01:54:59;;;;;;;27.02;13.55;;;1.50;99.90;;;;;;2603167;54;20243;31
2023/12/15 01:57:33;;;;;;;30.02;14.10;;;1.40;99.90;;;;;;2621593;46;20029;31
2023/12/15 02:00:10;;;;;;;28.17;13.43;;;1.50;99.90;;;;;;2603109;54;20886;31
2023/12/15 02:02:47;;;;;;;28.00;12.43;;;1.50;99.90;;;;;;2603157;54;20254;31
2023/12/15 02:05:21;;;;;;;28.15;13.45;;;1.40;99.90;;;;;;2603173;54;20031;31
2023/12/15 02:08:01;;;;;;;27.45;12.38;;;1.40;99.90;;;;;;2603120;54;20033;31
2023/12/15 02:10:39;;;;;;;30.70;13.53;;;1.50;99.90;;;;;;2720039;39;20476;31
2023/12/15 02:13:14;;;;;;;24.17;12.70;;;1.40;99.90;;;;;;2603052;54;20257;31
2023/12/15 02:15:48;;;;;;;30.33;14.33;;;1.40;99.90;;;;;;2603182;54;20882;31
2023/12/15 02:18:23;;;;;;;28.20;13.25;;;1.50;99.90;;;;;;2603111;54;20875;31
2023/12/15 02:20:58;;;;;;;24.95;13.10;;;1.40;99.90;;;;;;2603025;54;20037;31
2023/12/15 02:23:36;;;;;;;27.60;12.45;;;1.40;99.90;;;;;;2621818;46;20094;31
2023/12/15 02:26:10;;;;;;;29.13;12.70;;;1.40;99.90;;;;;;2603015;54;20057;31
2023/12/15 02:28:45;;;;;;;26.73;13.57;;;1.40;99.90;;;;;;2602895;54;20891;31
2023/12/15 02:31:22;;;;;;;24.60;13.20;;;1.40;99.90;;;;;;2603136;54;20900;31
2023/12/15 02:33:56;;;;;;;27.07;13.43;;;1.40;99.90;;;;;;2602991;54;20031;31
2023/12/15 02:36:31;;;;;;;27.10;13.43;;;1.40;99.90;;;;;;2603055;54;20255;31
2023/12/15 02:39:09;;;;;;;28.35;12.95;;;1.40;99.90;;;;;;2621621;46;20235;31
2023/12/15 02:41:38;;;;;;;28.95;13.15;;;1.40;99.90;;;;;;2621215;46;22379;31
2023/12/15 02:44:13;;;;;;;29.30;13.95;;;1.40;99.90;;;;;;2602945;54;20886;31
2023/12/15 02:46:48;;;;;;;29.30;14.03;;;1.40;99.90;;;;;;2621707;46;20030;31
2023/12/15 02:49:25;;;;;;;31.25;14.80;;;1.40;99.90;;;;;;2621302;46;20238;31
2023/12/15 02:51:59;;;;;;;30.70;13.90;;;1.40;99.90;;;;;;2621293;46;20062;31
2023/12/15 02:54:36;;;;;;;28.95;13.55;;;1.30;99.90;;;;;;2603082;54;20030;31
2023/12/15 02:57:10;;;;;;;27.33;12.97;;;1.30;99.90;;;;;;2603089;54;20026;31
2023/12/15 02:59:47;;;;;;;30.70;13.95;;;1.30;99.90;;;;;;2602994;54;20824;31
2023/12/15 03:02:19;;;;;;;25.35;13.35;;;1.30;99.90;;;;;;2621202;46;21146;31
2023/12/15 03:04:54;;;;;;;28.00;13.60;;;1.30;99.90;;;;;;2602969;54;20089;31
2023/12/15 03:07:28;;;;;;;29.77;14.27;;;1.20;99.90;;;;;;2603093;54;20026;31
2023/12/15 03:10:05;;;;;;;29.38;13.70;;;1.20;99.90;;;;;;2603089;54;20878;31
2023/12/15 03:12:39;;;;;;;25.40;13.10;;;1.20;99.90;;;;;;2602764;54;20033;31
2023/12/15 03:15:14;;;;;;;28.00;12.77;;;1.20;99.90;;;;;;2602997;54;21132;31
2023/12/15 03:17:49;;;;;;;25.52;12.50;;;1.20;99.90;;;;;;2602857;54;20042;31
2023/12/15 03:20:24;;;;;;;28.17;12.70;;;1.20;99.90;;;;;;2602876;54;20042;31
2023/12/15 03:23:00;;;;;;;24.30;12.20;;;1.20;99.90;;;;;;2621430;46;20242;31
2023/12/15 03:25:38;;;;;;;27.80;13.30;;;1.20;99.90;;;;;;2602941;54;21652;31
2023/12/15 03:28:12;;;;;;;30.45;14.68;;;1.20;99.90;;;;;;2602782;54;20900;31
2023/12/15 03:30:46;;;;;;;29.73;13.13;;;1.20;99.90;;;;;;2602725;54;20880;31
2023/12/15 03:33:21;;;;;;;30.27;12.33;;;1.20;99.90;;;;;;2621510;46;20847;31
2023/12/15 03:35:56;;;;;;;24.30;12.87;;;1.20;99.90;;;;;;2701294;39;20585;31
2023/12/15 03:38:31;;;;;;;27.85;12.73;;;1.10;99.90;;;;;;2602769;54;21078;31
2023/12/15 03:41:12;;;;;;;30.75;13.80;;;1.20;99.90;;;;;;2602737;54;20089;31
2023/12/15 03:43:47;;;;;;;24.73;12.63;;;1.20;99.90;;;;;;2602758;54;20052;31
2023/12/15 03:46:21;;;;;;;28.23;13.37;;;1.20;99.90;;;;;;2620996;46;20245;31
2023/12/15 03:48:55;;;;;;;29.60;13.50;;;1.20;99.90;;;;;;2602804;54;20031;31
2023/12/15 03:51:30;;;;;;;23.60;12.15;;;1.20;99.90;;;;;;2602655;54;20056;31
2023/12/15 03:54:04;;;;;;;27.02;13.50;;;1.20;99.90;;;;;;2620966;46;20026;31
2023/12/15 03:56:42;;;;;;;27.53;13.00;;;1.20;99.90;;;;;;2602763;54;20033;31
2023/12/15 03:59:16;;;;;;;27.23;12.90;;;1.20;99.90;;;;;;2602626;54;20234;31
2023/12/15 04:01:50;;;;;;;27.02;13.40;;;1.20;99.90;;;;;;2602613;54;20969;31
2023/12/15 04:04:24;;;;;;;29.77;12.70;;;1.20;99.90;;;;;;2602745;54;20027;31
2023/12/15 04:06:58;;;;;;;27.50;13.47;;;1.20;99.90;;;;;;2602854;54;20049;31
2023/12/15 04:09:32;;;;;;;25.25;13.25;;;1.20;99.90;;;;;;2621561;47;21203;31
2023/12/15 04:12:10;;;;;;;25.33;13.27;;;1.20;99.90;;;;;;2602653;54;20882;31
2023/12/15 04:14:44;;;;;;;26.40;12.47;;;1.20;99.90;;;;;;2620925;47;20258;31
2023/12/15 04:17:18;;;;;;;25.75;11.50;;;1.20;99.90;;;;;;2621113;47;20026;31
2023/12/15 04:19:53;;;;;;;32.22;13.25;;;1.20;99.90;;;;;;2621067;47;20033;31
2023/12/15 04:22:28;;;;;;;32.17;13.37;;;1.20;99.90;;;;;;2602477;54;20915;31
2023/12/15 04:25:03;;;;;;;30.40;13.48;;;1.20;99.90;;;;;;2620984;47;21007;31
2023/12/15 04:27:41;;;;;;;25.17;12.90;;;1.20;99.90;;;;;;2602748;54;20034;31
2023/12/15 04:30:16;;;;;;;26.25;12.35;;;1.20;99.90;;;;;;2602605;54;20872;31
2023/12/15 04:32:51;;;;;;;30.35;12.40;;;1.20;99.90;;;;;;2602606;54;20037;31
2023/12/15 04:35:26;;;;;;;23.70;12.10;;;1.20;99.90;;;;;;2602527;54;20057;31
2023/12/15 04:38:01;;;;;;;26.73;12.55;;;1.20;99.90;;;;;;2602676;54;20049;31
2023/12/15 04:40:36;;;;;;;28.38;13.25;;;1.20;99.90;;;;;;2603595;54;20861;31
2023/12/15 04:43:14;;;;;;;27.10;13.50;;;1.20;99.90;;;;;;2621761;46;20776;31
2023/12/15 04:45:48;;;;;;;27.02;13.35;;;1.20;99.90;;;;;;2720279;39;20555;31
2023/12/15 04:48:23;;;;;;;25.17;13.70;;;1.20;99.90;;;;;;2603300;54;20946;31
2023/12/15 04:50:58;;;;;;;24.10;11.95;;;1.20;99.90;;;;;;2603443;54;20877;31
2023/12/15 04:53:33;;;;;;;24.15;13.27;;;1.20;99.90;;;;;;2603491;54;20922;31
2023/12/15 04:56:09;;;;;;;28.42;13.45;;;1.20;99.90;;;;;;2622114;46;20042;31
2023/12/15 04:58:44;;;;;;;26.27;13.00;;;1.20;99.90;;;;;;2621746;46;22344;31
2023/12/15 05:01:18;;;;;;;27.45;12.32;;;1.20;99.90;;;;;;2622182;46;20763;31
2023/12/15 05:03:53;;;;;;;25.63;12.80;;;1.20;99.90;;;;;;2603230;54;21564;31
2023/12/15 05:06:28;;;;;;;29.88;13.30;;;1.20;99.90;;;;;;2603428;54;21181;31
2023/12/15 05:09:04;;;;;;;29.77;14.07;;;1.20;99.90;;;;;;2621737;46;20942;31
2023/12/15 05:11:40;;;;;;;27.15;14.05;;;1.20;99.90;;;;;;2621768;46;20056;31
2023/12/15 05:14:19;;;;;;;30.30;13.20;;;1.30;99.90;;;;;;2603259;54;20925;31
2023/12/15 05:17:03;;;;;;;30.93;13.93;;;1.20;99.90;;;;;;2603493;54;20034;31
2023/12/15 05:19:39;;;;;;;27.90;12.57;;;1.30;99.90;;;;;;2603147;54;20035;31
2023/12/15 05:22:13;;;;;;;29.10;13.95;;;1.30;99.90;;;;;;2602947;54;20030;31
2023/12/15 05:24:48;;;;;;;32.88;13.55;;;1.30;99.90;;;;;;2603208;54;20842;31
2023/12/15 05:27:24;;;;;;;24.67;13.43;;;1.20;99.90;;;;;;2603198;54;20033;31
2023/12/15 05:30:01;;;;;;;28.40;13.32;;;1.30;99.90;;;;;;2701663;39;20478;31
2023/12/15 05:32:36;;;;;;;29.05;13.60;;;1.30;99.90;;;;;;2617996;46;20565;31
2023/12/15 05:35:12;;;;;;;35.70;18.00;;;1.30;99.90;;;;;;2603238;54;20027;31
2023/12/15 05:37:46;;;;;;;35.57;16.77;;;1.30;99.90;;;;;;2603075;54;20053;31
2023/12/15 05:40:21;;;;;;;47.63;21.15;;;1.30;99.90;;;;;;2603242;54;20770;31
2023/12/15 05:42:55;;;;;;;50.50;22.48;;;1.40;99.90;;;;;;2603121;54;20899;31
2023/12/15 05:45:33;;;;;;;50.00;22.98;;;1.40;99.90;;;;;;2603174;54;20916;31
2023/12/15 05:48:08;;;;;;;45.10;22.00;;;1.40;99.90;;;;;;2603144;54;20878;31
2023/12/15 05:50:42;;;;;;;37.00;18.30;;;1.50;99.90;;;;;;2621686;46;20033;31
2023/12/15 05:53:17;;;;;;;36.35;18.33;;;1.50;99.90;;;;;;2603258;54;20026;31
2023/12/15 05:55:53;;;;;;;32.63;16.58;;;1.50;99.90;;;;;;2603236;54;20142;31
2023/12/15 05:58:27;;;;;;;32.08;15.23;;;1.50;99.90;;;;;;2701793;39;21419;31
2023/12/15 06:01:04;;;;;;;31.15;14.23;;;1.50;99.90;;;;;;2603245;54;20030;31
2023/12/15 06:03:38;;;;;;;30.10;14.85;;;1.50;99.90;;;;;;2603244;54;20837;31
2023/12/15 06:06:15;;;;;;;30.45;13.23;;;1.40;99.90;;;;;;2603066;54;20036;31
2023/12/15 06:08:49;;;;;;;30.53;13.63;;;1.40;99.90;;;;;;2603221;54;20915;31
2023/12/15 06:11:21;;;;;;;31.77;15.03;;;1.40;99.90;;;;;;2621452;46;22612;31
2023/12/15 06:13:56;;;;;;;28.33;13.40;;;1.40;99.90;;;;;;2603105;54;20900;31
2023/12/15 06:16:32;;;;;;;31.23;13.83;;;1.40;99.90;;;;;;2720206;39;22422;31
2023/12/15 06:19:06;;;;;;;34.50;14.47;;;1.40;99.90;;;;;;2621350;46;20764;31
2023/12/15 06:21:41;;;;;;;27.30;12.52;;;1.40;99.90;;;;;;2603172;54;20045;31
2023/12/15 06:24:15;;;;;;;32.03;13.57;;;1.40;99.90;;;;;;2602881;54;20031;31
2023/12/15 06:26:49;;;;;;;28.38;13.57;;;1.40;99.90;;;;;;2602919;54;20892;31
2023/12/15 06:29:23;;;;;;;26.87;12.90;;;1.40;99.90;;;;;;2602982;54;20858;31
2023/12/15 06:32:03;;;;;;;28.65;12.98;;;1.40;99.90;;;;;;2602965;54;21218;31
2023/12/15 06:34:35;;;;;;;31.77;14.20;;;1.40;99.90;;;;;;2621359;46;21195;31
2023/12/15 06:37:10;;;;;;;32.38;13.38;;;1.40;99.90;;;;;;2603177;54;20030;31
2023/12/15 06:39:45;;;;;;;28.40;14.45;;;1.40;99.90;;;;;;2701822;39;20625;31
2023/12/15 06:42:20;;;;;;;31.57;14.73;;;1.40;99.90;;;;;;2603275;54;20863;31
2023/12/15 06:44:55;;;;;;;25.15;13.95;;;1.40;99.90;;;;;;2603079;54;20888;31
2023/12/15 06:47:33;;;;;;;31.20;15.03;;;1.40;99.90;;;;;;2602957;54;20047;31
2023/12/15 06:50:09;;;;;;;29.40;14.45;;;1.40;99.90;;;;;;2603070;54;20762;31
2023/12/15 06:52:44;;;;;;;30.33;13.68;;;1.40;99.90;;;;;;2602938;54;20026;31
2023/12/15 06:55:19;;;;;;;28.80;14.00;;;1.40;99.90;;;;;;2621197;46;20799;31
2023/12/15 06:57:54;;;;;;;31.33;14.98;;;1.40;99.90;;;;;;2602988;54;20875;31
2023/12/15 07:00:29;;;;;;;33.33;15.83;;;1.40;99.90;;;;;;2602959;54;20597;31
2023/12/15 07:03:07;;;;;;;30.70;15.73;;;1.40;99.90;;;;;;2602534;54;20037;31
2023/12/15 07:05:41;;;;;;;31.70;16.20;;;1.40;99.90;;;;;;2603161;54;20092;31
2023/12/15 07:08:16;;;;;;;35.67;16.85;;;1.50;99.90;;;;;;2602902;54;20766;31
2023/12/15 07:10:51;;;;;;;32.80;15.85;;;1.50;99.90;;;;;;2603073;54;20030;31
2023/12/15 07:13:26;;;;;;;35.70;17.63;;;1.50;99.90;;;;;;2602839;54;20854;31
2023/12/15 07:16:01;;;;;;;33.80;16.42;;;1.50;99.90;;;;;;2602946;54;20049;31
2023/12/15 07:18:41;;;;;;;31.85;16.67;;;1.50;99.90;;;;;;2621034;46;20033;31
2023/12/15 07:21:16;;;;;;;28.80;14.45;;;1.50;99.90;;;;;;2602931;54;20072;31
2023/12/15 07:23:51;;;;;;;34.30;15.65;;;1.50;99.90;;;;;;2621299;46;20033;31
2023/12/15 07:26:26;;;;;;;31.83;15.93;;;1.60;99.90;;;;;;2603026;54;20852;31
2023/12/15 07:29:01;;;;;;;36.67;15.48;;;1.60;99.90;;;;;;2603010;54;20037;31
2023/12/15 07:31:37;;;;;;;;;;;1.60;99.90;;;;;;2603165;54;20046;31
2023/12/15 07:34:14;;;;;;;31.00;13.88;;;1.60;99.90;;;;;;2602830;54;19993;31
2023/12/15 07:36:48;;;;;;;35.95;15.80;;;1.60;99.90;;;;;;2621420;46;20037;31
2023/12/15 07:39:23;;;;;;;36.50;17.00;;;1.60;99.90;;;;;;2602809;54;20879;31
2023/12/15 07:42:01;;;;;;;37.35;17.10;;;1.60;99.90;;;;;;2602825;54;21070;31
2023/12/15 07:44:36;;;;;;;49.28;22.48;;;1.60;99.90;;;;;;2602879;54;20868;31
2023/12/15 07:47:11;;;;;;;43.38;20.60;;;1.70;99.90;;;;;;2701379;39;20548;31
2023/12/15 07:49:49;;;;;;;39.42;17.95;;;1.70;99.90;;;;;;2602773;54;20972;31
2023/12/15 07:52:22;;;;;;;34.50;18.00;;;1.70;99.90;;;;;;2602953;54;22373;31
2023/12/15 07:54:57;;;;;;;32.92;16.77;;;1.70;99.90;;;;;;2603095;54;20876;31
2023/12/15 07:57:34;;;;;;;35.27;16.80;;;1.70;99.90;;;;;;2602524;54;20026;31
2023/12/15 08:00:13;;;;;;;35.60;16.57;;;1.70;99.90;;;;;;2621253;47;20820;31
2023/12/15 08:02:48;;;;;;;37.60;18.03;;;1.70;99.90;;;;;;2602659;54;20026;31
2023/12/15 08:05:26;;;;;;;40.08;18.15;;;1.80;99.90;;;;;;2620806;47;21074;31
2023/12/15 08:08:02;;;;;;;36.03;16.53;;;1.80;99.90;;;;;;2620998;47;20046;31
2023/12/15 08:10:37;;;;;;;35.85;16.25;;;1.80;99.90;;;;;;2602541;54;20250;31
2023/12/15 08:13:13;;;;;;;35.40;15.88;;;1.80;99.90;;;;;;2602969;54;20968;31
2023/12/15 08:15:47;;;;;;;32.78;17.00;;;1.90;99.90;;;;;;2603533;54;20930;31
2023/12/15 08:18:22;;;;;;;33.55;16.33;;;1.90;99.90;;;;;;2603559;54;20035;31
2023/12/15 08:21:00;;;;;;;35.80;17.60;;;1.90;99.90;;;;;;2603812;54;20034;31
2023/12/15 08:23:35;;;;;;;34.17;17.15;;;1.90;99.90;;;;;;2603357;54;20085;31
2023/12/15 08:26:21;;;;;;;34.80;17.05;;;1.90;99.90;;;;;;2603243;54;21216;31
2023/12/15 08:32:08;;;;;;;31.00;15.95;;;2.00;99.90;;;;;;2611429;54;20506;31
2023/12/15 08:37:50;;;;;;;32.65;16.25;;;2.00;99.90;;;;;;2602791;54;20026;31
2023/12/15 08:40:27;;;;;;;33.85;15.15;;;2.10;99.90;;;;;;2603350;54;20057;31
2023/12/15 08:45:41;;;;;;;33.13;16.02;;;2.10;99.90;;;;;;2603129;54;20786;31
2023/12/15 08:48:16;;;;;;;33.63;15.40;;;2.20;99.90;;;;;;2720429;39;20500;31
2023/12/15 08:50:52;;;;;;;29.30;15.60;;;2.20;99.90;;;;;;2603287;54;20674;31
2023/12/15 08:53:29;;;;;;;28.73;14.68;;;2.20;99.90;;;;;;2603259;54;21073;31
2023/12/15 08:56:04;;;;;;;33.58;16.80;;;2.30;99.90;;;;;;2621748;46;22377;31
2023/12/15 08:58:39;;;;;;;36.13;16.35;;;2.30;99.90;;;;;;2603472;54;20027;31
2023/12/15 09:01:14;;;;;;;43.40;17.80;;;2.30;99.90;;;;;;2603368;54;20889;31
2023/12/15 09:03:50;;;;;;;36.53;15.38;;;2.30;99.90;;;;;;2621765;46;20115;31
2023/12/15 09:06:26;;;;;;;22.85;10.40;;;2.40;99.90;;;;;;2603526;54;20882;31
2023/12/15 09:09:10;;;;;;;30.52;15.43;;;2.30;99.90;;;;;;2603550;54;20042;31
2023/12/15 09:11:46;;;;;;;34.08;15.07;;;2.40;99.90;;;;;;2603086;54;20115;31
2023/12/15 09:14:23;;;;;;;35.65;15.40;;;2.30;99.90;;;;;;2603240;54;20727;31
2023/12/15 09:16:57;;;;;;;32.13;17.13;;;2.40;99.90;;;;;;2603374;54;20911;31
2023/12/15 09:19:34;;;;;;;35.20;16.60;;;2.40;99.90;;;;;;2603474;54;20059;31
2023/12/15 09:22:10;;;;;;;34.15;16.48;;;2.40;99.90;;;;;;2603367;54;20026;31
2023/12/15 09:24:47;;;;;;;31.73;16.08;;;2.40;99.90;;;;;;2602931;54;20026;31
2023/12/15 09:27:23;;;;;;;40.85;16.70;;;2.40;99.90;;;;;;2603019;54;20084;31
2023/12/15 09:29:59;;;;;;;30.75;15.50;;;2.40;99.90;;;;;;2603369;54;20832;31
2023/12/15 09:32:33;;;;;;;33.30;15.98;;;2.50;99.90;;;;;;2622111;46;20777;31
2023/12/15 09:35:10;;;;;;;32.23;16.43;;;2.50;99.90;;;;;;2603139;54;20884;31
2023/12/15 09:37:45;;;;;;;30.07;15.37;;;2.50;99.90;;;;;;2603221;54;20706;31
2023/12/15 09:40:25;;;;;;;30.87;15.47;;;2.60;99.90;;;;;;2603035;54;20025;31
2023/12/15 09:43:00;;;;;;;32.03;15.77;;;2.50;99.90;;;;;;2603120;54;20271;31
2023/12/15 09:45:37;;;;;;;36.97;15.20;;;2.60;99.90;;;;;;2603424;54;20881;31
2023/12/15 09:48:10;;;;;;;30.55;14.65;;;2.60;99.90;;;;;;2603242;54;21222;31
2023/12/15 09:50:47;;;;;;;29.50;14.85;;;2.60;99.90;;;;;;2603185;54;20881;31
2023/12/15 09:53:19;;;;;;;24.60;14.75;;;2.60;99.90;;;;;;2621575;46;20089;31
2023/12/15 09:55:57;;;;;;;29.57;14.23;;;2.70;99.90;;;;;;2603208;54;20915;31
2023/12/15 09:58:31;;;;;;;34.60;15.95;;;2.70;99.90;;;;;;2603060;54;20048;31
2023/12/15 10:01:07;;;;;;;24.90;12.15;;;2.70;99.90;;;;;;2621565;46;20995;31
2023/12/15 10:03:41;;;;;;;28.90;14.07;;;2.70;99.90;;;;;;2603037;54;20031;31
2023/12/15 10:06:18;;;;;;;29.95;13.57;;;2.80;99.90;;;;;;2602809;54;20139;31
2023/12/15 10:08:51;;;;;;;;;;;2.80;99.90;;;;;;2621855;46;20933;31
2023/12/15 10:11:38;;;;;;;31.70;13.95;;;2.80;99.90;;;;;;2621756;46;20649;31
2023/12/15 10:14:14;;;;;;;30.23;13.65;;;2.90;99.90;;;;;;2603025;54;20791;31
2023/12/15 10:40:14;;;;;;;25.45;12.82;;;3.10;99.90;;;;;;2602946;54;20034;31
2023/12/15 15:47:43;;;;;;;15.95;9.63;;;3.20;99.90;;;;;;2610668;54;20023;31
2023/12/15 15:53:25;;;;;;;19.10;10.15;;;3.10;99.90;;;;;;2611650;54;20019;31
2023/12/15 15:56:02;;;;;;;19.85;9.90;;;3.10;99.90;;;;;;2602695;54;20033;31
2023/12/15 15:58:36;;;;;;;18.60;10.40;;;3.20;99.90;;;;;;2602680;54;20030;31
2023/12/15 16:01:11;;;;;;;19.58;10.32;;;3.20;99.90;;;;;;2602647;54;21386;31
2023/12/15 16:03:49;;;;;;;21.23;10.43;;;3.10;99.90;;;;;;2602648;54;20905;31
2023/12/15 16:06:23;;;;;;;17.42;9.63;;;3.10;99.90;;;;;;2602665;54;21213;31
2023/12/15 16:08:58;;;;;;;20.00;10.13;;;3.10;99.90;;;;;;2621351;47;20112;31
2023/12/15 16:11:33;;;;;;;17.73;9.97;;;3.10;99.90;;;;;;2602819;54;20866;31
2023/12/15 16:14:08;;;;;;;19.42;12.10;;;3.10;99.90;;;;;;2621258;47;20050;31
2023/12/15 16:16:42;;;;;;;29.25;15.00;;;3.10;99.90;;;;;;2621001;47;22314;31
2023/12/15 16:28:28;;;;;;;32.55;17.95;;;3.10;99.90;;;;;;2602623;54;20049;31
2023/12/15 16:34:09;;;;;;;40.50;20.07;;;3.10;99.90;;;;;;2602752;54;20022;31
2023/12/15 16:45:50;;;;;;;37.22;17.38;;;3.10;99.90;;;;;;2611404;54;20006;31
2023/12/15 16:48:27;;;;;;;34.57;17.13;;;3.10;99.90;;;;;;2621726;46;20156;31
2023/12/15 16:51:05;;;;;;;31.45;15.80;;;3.10;99.90;;;;;;2621875;46;20031;31
2023/12/15 16:56:24;;;;;;;31.15;15.80;;;3.10;99.90;;;;;;2622319;46;20895;31
2023/12/15 16:59:02;;;;;;;27.25;15.10;;;3.10;99.90;;;;;;2603366;54;20030;31
2023/12/15 17:01:40;;;;;;;30.10;15.18;;;3.10;99.90;;;;;;2603373;54;20112;31
2023/12/15 17:04:15;;;;;;;30.50;15.93;;;3.10;99.90;;;;;;2603368;54;20115;31
2023/12/15 17:06:50;;;;;;;26.73;13.75;;;3.10;99.90;;;;;;2603246;54;20731;31
2023/12/15 17:09:24;;;;;;;26.63;14.60;;;3.10;99.90;;;;;;2621779;46;22400;31
2023/12/15 17:11:59;;;;;;;31.70;15.10;;;3.10;99.90;;;;;;2622049;46;20038;31
2023/12/15 17:14:34;;;;;;;30.87;15.17;;;3.10;99.90;;;;;;2603138;54;20110;31
2023/12/15 17:17:13;;;;;;;36.58;17.80;;;3.10;99.90;;;;;;2603297;54;20630;31
2023/12/15 17:19:49;;;;;;;34.67;18.33;;;3.20;99.90;;;;;;2603353;54;20033;31
2023/12/15 17:22:29;;;;;;;33.97;17.67;;;3.20;99.90;;;;;;2621850;46;20858;31
2023/12/15 17:27:43;;;;;;;29.83;13.67;;;3.40;99.90;;;;;;2603207;54;20619;31
2023/12/15 17:30:23;;;;;;;26.85;15.00;;;3.40;99.90;;;;;;2602984;54;21196;31
2023/12/15 17:35:48;;;;;;;28.27;14.95;;;3.70;99.90;;;;;;2603206;54;20022;31
2023/12/15 17:38:26;;;;;;;35.50;15.75;;;3.80;99.90;;;;;;2603421;54;20843;31
2023/12/15 17:41:01;;;;;;;33.30;16.37;;;3.90;99.90;;;;;;2603178;54;20876;31
2023/12/15 17:43:36;;;;;;;26.33;13.47;;;3.90;99.90;;;;;;2701528;39;20575;31
2023/12/15 17:46:11;;;;;;;33.13;15.85;;;3.80;99.90;;;;;;2621342;46;20034;31
2023/12/15 17:48:45;;;;;;;32.72;15.45;;;3.80;99.90;;;;;;2603250;54;22358;31
2023/12/15 17:51:20;;;;;;;34.67;16.77;;;3.70;99.90;;;;;;2720277;39;20449;31
2023/12/15 17:53:58;;;;;;;36.80;17.75;;;3.70;99.90;;;;;;2621830;46;20046;31
2023/12/15 17:56:33;;;;;;;48.70;20.60;;;3.70;99.90;;;;;;2603034;54;20881;31
2023/12/15 17:59:08;;;;;;;48.10;18.75;;;3.60;99.90;;;;;;2603206;54;20841;31
2023/12/15 18:01:44;;;;;;;50.40;20.27;;;3.60;99.90;;;;;;2701682;39;20454;31
2023/12/15 18:04:19;;;;;;;31.60;16.20;;;3.60;99.90;;;;;;2603042;54;20239;31
2023/12/15 18:06:54;;;;;;;32.85;15.95;;;3.50;99.90;;;;;;2602711;54;20267;31
2023/12/15 18:09:32;;;;;;;30.77;13.48;;;3.50;99.90;;;;;;2603149;54;20064;31
2023/12/15 18:12:08;;;;;;;24.37;12.47;;;3.50;99.90;;;;;;2603393;54;20026;31
2023/12/15 18:14:46;;;;;;;24.37;11.93;;;3.50;99.90;;;;;;2621320;46;20877;31
2023/12/15 18:17:22;;;;;;;25.95;11.77;;;3.50;99.90;;;;;;2603098;54;20056;31
2023/12/15 18:19:57;;;;;;;23.80;10.90;;;3.50;99.90;;;;;;2621287;46;20026;31
2023/12/15 18:22:33;;;;;;;22.70;11.50;;;3.50;99.90;;;;;;2603273;54;20925;31
2023/12/15 18:25:11;;;;;;;;;;;3.50;99.90;;;;;;2603193;54;20944;31
2023/12/15 18:27:47;;;;;;;24.30;12.90;;;3.50;99.90;;;;;;2602862;54;19935;31
2023/12/15 18:30:22;;;;;;;30.60;14.77;;;3.50;99.90;;;;;;2603034;54;20057;31
2023/12/15 18:32:58;;;;;;;28.45;13.50;;;3.50;99.90;;;;;;2603230;54;20833;31
2023/12/15 18:35:34;;;;;;;27.97;14.27;;;3.50;99.90;;;;;;2602873;54;20725;31
2023/12/15 18:38:08;;;;;;;41.10;16.48;;;3.50;99.90;;;;;;2603128;54;20037;31
2023/12/15 18:40:47;;;;;;;40.42;17.20;;;3.50;99.90;;;;;;2603083;54;20834;31
2023/12/15 18:43:23;;;;;;;37.00;17.47;;;3.50;99.90;;;;;;2603123;54;20893;31
2023/12/15 18:45:58;;;;;;;34.70;18.50;;;3.50;99.90;;;;;;2621283;46;20102;31
2023/12/15 18:48:33;;;;;;;35.20;17.10;;;3.50;99.90;;;;;;2602824;54;21171;31
2023/12/15 18:51:09;;;;;;;37.45;17.65;;;3.50;99.90;;;;;;2621564;46;20093;31
2023/12/15 18:53:44;;;;;;;32.80;15.70;;;3.50;99.90;;;;;;2621158;46;20034;31
2023/12/15 18:56:22;;;;;;;33.05;16.30;;;3.50;99.90;;;;;;2603066;54;20034;31
2023/12/15 18:59:02;;;;;;;27.52;14.63;;;3.60;99.90;;;;;;2719698;39;20478;31
2023/12/15 19:01:36;;;;;;;34.50;15.90;;;3.50;99.90;;;;;;2602905;54;20720;31
2023/12/15 19:04:13;;;;;;;33.07;15.90;;;3.50;99.90;;;;;;2603030;54;20030;31
2023/12/15 19:06:47;;;;;;;28.15;13.93;;;3.50;99.90;;;;;;2603042;54;20034;31
2023/12/15 19:09:21;;;;;;;30.40;16.05;;;3.50;99.90;;;;;;2603017;54;20053;31
2023/12/15 19:11:59;;;;;;;31.77;14.63;;;3.60;99.90;;;;;;2602950;54;20033;31
2023/12/15 19:14:36;;;;;;;28.90;15.05;;;3.60;99.90;;;;;;2602990;54;20894;31
2023/12/15 19:17:11;;;;;;;30.80;14.95;;;3.60;99.90;;;;;;2621205;46;20868;31
2023/12/15 19:19:45;;;;;;;32.10;15.23;;;3.60;99.90;;;;;;2602939;54;20050;31
2023/12/15 19:22:20;;;;;;;31.10;14.75;;;3.60;99.90;;;;;;2602746;54;20088;31
2023/12/15 19:24:54;;;;;;;30.27;14.53;;;3.60;99.90;;;;;;2602807;54;20094;31
2023/12/15 19:27:31;;;;;;;29.02;15.20;;;3.60;99.90;;;;;;2621120;46;21154;31
2023/12/15 19:30:06;;;;;;;34.50;14.87;;;3.60;99.90;;;;;;2602869;54;20872;31
2023/12/15 19:32:41;;;;;;;27.95;15.02;;;3.70;99.90;;;;;;2621265;46;20107;31
2023/12/15 19:35:17;;;;;;;29.98;15.13;;;3.70;99.90;;;;;;2602764;54;20072;31
2023/12/15 19:37:52;;;;;;;28.10;14.30;;;3.70;99.90;;;;;;2602869;54;20033;31
2023/12/15 19:40:27;;;;;;;28.35;13.10;;;3.70;99.90;;;;;;2603013;54;20765;31